Aspen-Gerbaz, Colorado
Current Conditions -  °F | °C
As of 11:53 AM on Thursday 30 Oct 2014 (Local Time) from KASE Reporting Station
Clear Clear  
Wind Chill: 54°   Ceiling: Unl
Heat Index: 54°   Visibility: 10mi
Dew Point: 18°   Wind: 0mph
Humidity: 24%   Direction: NA
Pressure: 30.43"   Gusts: NA
Location:  39.1256°N, 106.797°W
Report Text: KASE 301753Z 00000KT 10SM CLR 12/M08 A3043 RMK AO2 SLP245 T01221078 10128 21033 58009
Loading
Personal Weather Stations






























Interactive Weather Map
Tropical Storm Tracking
New forecast layout! Learn more

10-Day Weather Forecast

Advertisements
Track Severe Weather on mobile